sensor_id;sensor_type;location;lat;lon;timestamp;pressure;altitude;pressure_sealevel;temperature;humidity
12475;BME280;6302;42.624;23.334;2022-09-24T00:01:47;93595.53;;;7.49;100.00
12475;BME280;6302;42.624;23.334;2022-09-24T00:04:16;93610.25;;;7.50;100.00
12475;BME280;6302;42.624;23.334;2022-09-24T00:06:45;93606.81;;;7.46;100.00
12475;BME280;6302;42.624;23.334;2022-09-24T00:09:14;93609.06;;;7.44;100.00
12475;BME280;6302;42.624;23.334;2022-09-24T00:11:41;93603.03;;;7.43;100.00
12475;BME280;6302;42.624;23.334;2022-09-24T00:14:10;93606.75;;;7.39;100.00
12475;BME280;6302;42.624;23.334;2022-09-24T00:16:39;93609.78;;;7.37;100.00
12475;BME280;6302;42.624;23.334;2022-09-24T00:19:08;93598.72;;;7.25;100.00
12475;BME280;6302;42.624;23.334;2022-09-24T00:21:37;93614.22;;;7.30;100.00
12475;BME280;6302;42.624;23.334;2022-09-24T00:24:06;93605.91;;;7.28;100.00
12475;BME280;6302;42.624;23.334;2022-09-24T00:26:33;93601.38;;;7.25;100.00
12475;BME280;6302;42.624;23.334;2022-09-24T00:29:17;93608.06;;;7.18;100.00
12475;BME280;6302;42.624;23.334;2022-09-24T00:31:45;93604.38;;;7.23;100.00
12475;BME280;6302;42.624;23.334;2022-09-24T00:34:12;93601.75;;;7.23;100.00
12475;BME280;6302;42.624;23.334;2022-09-24T00:36:39;93607.75;;;7.23;100.00
12475;BME280;6302;42.624;23.334;2022-09-24T00:39:06;93604.72;;;7.21;100.00
12475;BME280;6302;42.624;23.334;2022-09-24T00:41:35;93608.88;;;7.22;100.00
12475;BME280;6302;42.624;23.334;2022-09-24T00:44:42;93607.34;;;7.21;100.00
12475;BME280;6302;42.624;23.334;2022-09-24T00:47:12;93601.25;;;7.14;100.00
12475;BME280;6302;42.624;23.334;2022-09-24T00:49:40;93611.03;;;7.13;100.00
12475;BME280;6302;42.624;23.334;2022-09-24T00:52:07;93606.84;;;7.09;100.00
12475;BME280;6302;42.624;23.334;2022-09-24T00:54:34;93604.91;;;7.02;100.00
12475;BME280;6302;42.624;23.334;2022-09-24T00:57:01;93607.56;;;7.02;100.00
12475;BME280;6302;42.624;23.334;2022-09-24T00:59:29;93605.25;;;6.97;100.00
12475;BME280;6302;42.624;23.334;2022-09-24T01:01:56;93604.09;;;6.95;100.00
12475;BME280;6302;42.624;23.334;2022-09-24T01:04:26;93590.44;;;6.86;100.00
12475;BME280;6302;42.624;23.334;2022-09-24T01:06:53;93595.72;;;6.86;100.00
12475;BME280;6302;42.624;23.334;2022-09-24T01:09:23;93585.88;;;6.83;100.00
12475;BME280;6302;42.624;23.334;2022-09-24T01:11:59;93587.31;;;6.77;100.00
12475;BME280;6302;42.624;23.334;2022-09-24T01:14:50;93586.16;;;6.74;100.00
12475;BME280;6302;42.624;23.334;2022-09-24T01:17:27;93589.53;;;6.71;100.00
12475;BME280;6302;42.624;23.334;2022-09-24T01:20:33;93589.44;;;6.64;100.00
12475;BME280;6302;42.624;23.334;2022-09-24T01:23:19;93584.91;;;6.61;100.00
12475;BME280;6302;42.624;23.334;2022-09-24T01:25:58;93593.91;;;6.60;100.00
12475;BME280;6302;42.624;23.334;2022-09-24T01:28:36;93588.66;;;6.60;100.00
12475;BME280;6302;42.624;23.334;2022-09-24T01:31:15;93596.53;;;6.60;100.00
12475;BME280;6302;42.624;23.334;2022-09-24T01:33:43;93587.16;;;6.59;100.00
12475;BME280;6302;42.624;23.334;2022-09-24T01:36:12;93591.59;;;6.55;100.00
12475;BME280;6302;42.624;23.334;2022-09-24T01:38:41;93591.19;;;6.53;100.00
12475;BME280;6302;42.624;23.334;2022-09-24T01:41:10;93587.41;;;6.50;100.00
12475;BME280;6302;42.624;23.334;2022-09-24T01:43:40;93591.88;;;6.46;100.00
12475;BME280;6302;42.624;23.334;2022-09-24T01:46:11;93589.97;;;6.43;100.00
12475;BME280;6302;42.624;23.334;2022-09-24T01:48:39;93593.66;;;6.39;100.00
12475;BME280;6302;42.624;23.334;2022-09-24T01:51:10;93600.75;;;6.35;100.00
12475;BME280;6302;42.624;23.334;2022-09-24T01:53:40;93592.84;;;6.35;100.00
12475;BME280;6302;42.624;23.334;2022-09-24T01:56:12;93595.78;;;6.30;100.00
12475;BME280;6302;42.624;23.334;2022-09-24T01:58:46;93598.03;;;6.28;100.00
12475;BME280;6302;42.624;23.334;2022-09-24T02:01:20;93596.53;;;6.27;100.00
12475;BME280;6302;42.624;23.334;2022-09-24T02:03:52;93603.25;;;6.24;100.00
12475;BME280;6302;42.624;23.334;2022-09-24T02:06:25;93598.34;;;6.23;100.00
12475;BME280;6302;42.624;23.334;2022-09-24T02:08:56;93591.91;;;6.20;100.00
12475;BME280;6302;42.624;23.334;2022-09-24T02:11:24;93601.66;;;6.20;100.00
12475;BME280;6302;42.624;23.334;2022-09-24T02:13:56;93609.16;;;6.18;100.00
12475;BME280;6302;42.624;23.334;2022-09-24T02:16:29;93613.34;;;6.19;100.00
12475;BME280;6302;42.624;23.334;2022-09-24T02:18:59;93612.88;;;6.13;100.00
12475;BME280;6302;42.624;23.334;2022-09-24T02:21:28;93620.38;;;6.11;100.00
12475;BME280;6302;42.624;23.334;2022-09-24T02:24:02;93619.19;;;6.09;100.00
12475;BME280;6302;42.624;23.334;2022-09-24T02:26:30;93626.69;;;6.07;100.00
12475;BME280;6302;42.624;23.334;2022-09-24T02:28:57;93627.03;;;6.05;100.00
12475;BME280;6302;42.624;23.334;2022-09-24T02:31:29;93634.59;;;6.07;100.00
12475;BME280;6302;42.624;23.334;2022-09-24T02:33:58;93635.66;;;6.02;100.00
12475;BME280;6302;42.624;23.334;2022-09-24T02:36:44;93635.59;;;5.99;100.00
12475;BME280;6302;42.624;23.334;2022-09-24T02:39:11;93630.63;;;5.94;100.00
12475;BME280;6302;42.624;23.334;2022-09-24T02:41:39;93641.56;;;5.96;100.00
12475;BME280;6302;42.624;23.334;2022-09-24T02:44:07;93641.53;;;5.92;100.00
12475;BME280;6302;42.624;23.334;2022-09-24T02:46:35;93643.38;;;5.92;100.00
12475;BME280;6302;42.624;23.334;2022-09-24T02:49:04;93638.88;;;5.92;100.00
12475;BME280;6302;42.624;23.334;2022-09-24T02:51:30;93640.75;;;5.92;100.00
12475;BME280;6302;42.624;23.334;2022-09-24T02:53:57;93646.00;;;5.92;100.00
12475;BME280;6302;42.624;23.334;2022-09-24T02:56:25;93643.72;;;5.90;100.00
12475;BME280;6302;42.624;23.334;2022-09-24T02:58:52;93642.59;;;5.87;100.00
12475;BME280;6302;42.624;23.334;2022-09-24T03:01:19;93642.91;;;5.86;100.00
12475;BME280;6302;42.624;23.334;2022-09-24T03:03:48;93645.91;;;5.84;100.00
12475;BME280;6302;42.624;23.334;2022-09-24T03:06:14;93646.59;;;5.81;100.00
12475;BME280;6302;42.624;23.334;2022-09-24T03:08:42;93646.59;;;5.81;100.00
12475;BME280;6302;42.624;23.334;2022-09-24T03:11:10;93642.41;;;5.80;100.00
12475;BME280;6302;42.624;23.334;2022-09-24T03:13:37;93642.78;;;5.79;100.00
12475;BME280;6302;42.624;23.334;2022-09-24T03:16:05;93637.88;;;5.77;100.00
12475;BME280;6302;42.624;23.334;2022-09-24T03:18:32;93642.38;;;5.77;100.00
12475;BME280;6302;42.624;23.334;2022-09-24T03:21:02;93634.44;;;5.73;100.00
12475;BME280;6302;42.624;23.334;2022-09-24T03:23:30;93640.09;;;5.75;100.00
12475;BME280;6302;42.624;23.334;2022-09-24T03:25:57;93645.34;;;5.75;100.00
12475;BME280;6302;42.624;23.334;2022-09-24T03:28:24;93643.84;;;5.74;100.00
12475;BME280;6302;42.624;23.334;2022-09-24T03:30:51;93642.31;;;5.73;100.00
12475;BME280;6302;42.624;23.334;2022-09-24T03:33:28;93643.84;;;5.74;100.00
12475;BME280;6302;42.624;23.334;2022-09-24T03:35:56;93646.06;;;5.72;100.00
12475;BME280;6302;42.624;23.334;2022-09-24T03:38:25;93654.28;;;5.71;100.00
12475;BME280;6302;42.624;23.334;2022-09-24T03:40:52;93654.66;;;5.69;100.00
12475;BME280;6302;42.624;23.334;2022-09-24T03:43:19;93664.78;;;5.67;100.00
12475;BME280;6302;42.624;23.334;2022-09-24T03:45:45;93661.38;;;5.67;100.00
12475;BME280;6302;42.624;23.334;2022-09-24T03:48:13;93662.47;;;5.66;100.00
12475;BME280;6302;42.624;23.334;2022-09-24T03:50:40;93662.44;;;5.62;100.00
12475;BME280;6302;42.624;23.334;2022-09-24T03:53:07;93661.28;;;5.60;100.00
12475;BME280;6302;42.624;23.334;2022-09-24T03:55:41;93668.75;;;5.58;100.00
12475;BME280;6302;42.624;23.334;2022-09-24T03:58:08;93660.38;;;5.52;100.00
12475;BME280;6302;42.624;23.334;2022-09-24T04:00:35;93669.03;;;5.53;100.00
12475;BME280;6302;42.624;23.334;2022-09-24T04:03:02;93665.97;;;5.51;100.00
12475;BME280;6302;42.624;23.334;2022-09-24T04:05:29;93665.94;;;5.47;100.00
12475;BME280;6302;42.624;23.334;2022-09-24T04:07:56;93660.69;;;5.47;100.00
12475;BME280;6302;42.624;23.334;2022-09-24T04:10:23;93665.25;;;5.50;100.00
12475;BME280;6302;42.624;23.334;2022-09-24T04:12:51;93665.53;;;5.45;100.00
12475;BME280;6302;42.624;23.334;2022-09-24T04:15:18;93665.88;;;5.44;100.00
12475;BME280;6302;42.624;23.334;2022-09-24T04:17:48;93657.66;;;5.45;100.00
12475;BME280;6302;42.624;23.334;2022-09-24T04:20:16;93661.78;;;5.46;100.00
12475;BME280;6302;42.624;23.334;2022-09-24T04:22:47;93669.31;;;5.48;100.00
12475;BME280;6302;42.624;23.334;2022-09-24T04:25:15;93665.16;;;5.47;100.00
12475;BME280;6302;42.624;23.334;2022-09-24T04:27:42;93668.91;;;5.46;100.00
12475;BME280;6302;42.624;23.334;2022-09-24T04:30:12;93676.50;;;5.51;100.00
12475;BME280;6302;42.624;23.334;2022-09-24T04:32:39;93679.19;;;5.54;100.00
12475;BME280;6302;42.624;23.334;2022-09-24T04:35:07;93679.19;;;5.54;100.00
12475;BME280;6302;42.624;23.334;2022-09-24T04:37:34;93685.69;;;5.60;100.00
12475;BME280;6302;42.624;23.334;2022-09-24T04:40:02;93684.22;;;5.63;100.00
12475;BME280;6302;42.624;23.334;2022-09-24T04:42:28;93689.91;;;5.65;100.00
12475;BME280;6302;42.624;23.334;2022-09-24T04:44:56;93687.28;;;5.65;100.00
12475;BME280;6302;42.624;23.334;2022-09-24T04:47:24;93691.06;;;5.67;100.00
12475;BME280;6302;42.624;23.334;2022-09-24T04:49:51;93681.34;;;5.71;100.00
12475;BME280;6302;42.624;23.334;2022-09-24T04:52:18;93684.78;;;5.75;100.00
12475;BME280;6302;42.624;23.334;2022-09-24T04:54:44;93683.41;;;5.81;100.00
12475;BME280;6302;42.624;23.334;2022-09-24T04:57:12;93680.88;;;5.85;100.00
12475;BME280;6302;42.624;23.334;2022-09-24T04:59:39;93685.06;;;5.89;100.00
12475;BME280;6302;42.624;23.334;2022-09-24T05:02:06;93679.50;;;5.95;100.00
12475;BME280;6302;42.624;23.334;2022-09-24T05:04:35;93679.63;;;6.02;100.00
12475;BME280;6302;42.624;23.334;2022-09-24T05:07:01;93687.91;;;6.04;100.00
12475;BME280;6302;42.624;23.334;2022-09-24T05:09:28;93679.63;;;6.02;100.00
12475;BME280;6302;42.624;23.334;2022-09-24T05:11:56;93696.00;;;6.18;100.00
12475;BME280;6302;42.624;23.334;2022-09-24T05:14:23;93688.22;;;6.25;100.00
12475;BME280;6302;42.624;23.334;2022-09-24T05:16:50;93690.53;;;6.30;100.00
12475;BME280;6302;42.624;23.334;2022-09-24T05:19:17;93698.97;;;6.39;100.00
12475;BME280;6302;42.624;23.334;2022-09-24T05:21:46;93698.66;;;6.44;100.00
12475;BME280;6302;42.624;23.334;2022-09-24T05:24:12;93698.03;;;6.54;100.00
12475;BME280;6302;42.624;23.334;2022-09-24T05:26:39;93695.13;;;6.63;100.00
12475;BME280;6302;42.624;23.334;2022-09-24T05:29:23;93696.00;;;6.70;100.00
12475;BME280;6302;42.624;23.334;2022-09-24T05:31:50;93701.00;;;6.79;100.00
12475;BME280;6302;42.624;23.334;2022-09-24T05:34:17;93698.41;;;6.82;100.00
12475;BME280;6302;42.624;23.334;2022-09-24T05:36:46;93698.47;;;6.89;100.00
12475;BME280;6302;42.624;23.334;2022-09-24T05:39:12;93699.78;;;7.02;100.00
12475;BME280;6302;42.624;23.334;2022-09-24T05:41:39;93707.75;;;7.09;100.00
12475;BME280;6302;42.624;23.334;2022-09-24T05:44:07;93704.00;;;7.10;100.00
12475;BME280;6302;42.624;23.334;2022-09-24T05:46:35;93704.81;;;7.14;100.00
12475;BME280;6302;42.624;23.334;2022-09-24T05:49:02;93711.59;;;7.15;100.00
12475;BME280;6302;42.624;23.334;2022-09-24T05:51:29;93719.53;;;7.19;100.00
12475;BME280;6302;42.624;23.334;2022-09-24T05:53:57;93719.22;;;7.24;100.00
12475;BME280;6302;42.624;23.334;2022-09-24T05:56:24;93724.16;;;7.29;100.00
12475;BME280;6302;42.624;23.334;2022-09-24T05:58:51;93731.38;;;7.32;100.00
12475;BME280;6302;42.624;23.334;2022-09-24T06:01:17;93733.16;;;7.25;100.00
12475;BME280;6302;42.624;23.334;2022-09-24T06:03:44;93727.19;;;7.31;100.00
12475;BME280;6302;42.624;23.334;2022-09-24T06:06:11;93729.56;;;7.40;100.00
12475;BME280;6302;42.624;23.334;2022-09-24T06:08:38;93731.13;;;7.44;100.00
12475;BME280;6302;42.624;23.334;2022-09-24T06:11:06;93725.91;;;7.48;100.00
12475;BME280;6302;42.624;23.334;2022-09-24T06:13:34;93722.25;;;7.59;100.00
12475;BME280;6302;42.624;23.334;2022-09-24T06:16:01;93732.13;;;7.69;100.00
12475;BME280;6302;42.624;23.334;2022-09-24T06:18:28;93734.47;;;7.78;100.00
12475;BME280;6302;42.624;23.334;2022-09-24T06:21:00;93724.72;;;7.82;100.00
12475;BME280;6302;42.624;23.334;2022-09-24T06:23:27;93733.78;;;7.84;100.00
12475;BME280;6302;42.624;23.334;2022-09-24T06:25:54;93728.69;;;8.02;100.00
12475;BME280;6302;42.624;23.334;2022-09-24T06:28:22;93730.97;;;8.07;100.00
12475;BME280;6302;42.624;23.334;2022-09-24T06:30:50;93734.78;;;8.13;100.00
12475;BME280;6302;42.624;23.334;2022-09-24T06:33:16;93737.13;;;8.22;100.00
12475;BME280;6302;42.624;23.334;2022-09-24T06:35:44;93736.50;;;8.32;100.00
12475;BME280;6302;42.624;23.334;2022-09-24T06:38:14;93743.31;;;8.36;100.00
12475;BME280;6302;42.624;23.334;2022-09-24T06:40:43;93751.63;;;8.38;100.00
12475;BME280;6302;42.624;23.334;2022-09-24T06:43:12;93741.09;;;8.45;100.00
12475;BME280;6302;42.624;23.334;2022-09-24T06:45:40;93749.06;;;8.52;100.00
12475;BME280;6302;42.624;23.334;2022-09-24T06:48:09;93746.84;;;8.62;100.00
12475;BME280;6302;42.624;23.334;2022-09-24T06:50:39;93747.28;;;8.64;100.00
12475;BME280;6302;42.624;23.334;2022-09-24T06:53:08;93746.56;;;8.70;100.00
12475;BME280;6302;42.624;23.334;2022-09-24T06:55:36;93748.09;;;8.75;100.00
12475;BME280;6302;42.624;23.334;2022-09-24T06:58:05;93750.78;;;8.85;100.00
12475;BME280;6302;42.624;23.334;2022-09-24T07:00:32;93745.94;;;8.91;100.00
12475;BME280;6302;42.624;23.334;2022-09-24T07:03:01;93748.59;;;8.98;100.00
12475;BME280;6302;42.624;23.334;2022-09-24T07:05:28;93742.16;;;8.99;100.00
12475;BME280;6302;42.624;23.334;2022-09-24T07:07:54;93753.97;;;9.19;100.00
12475;BME280;6302;42.624;23.334;2022-09-24T07:10:21;93759.72;;;9.28;100.00
12475;BME280;6302;42.624;23.334;2022-09-24T07:12:49;93756.69;;;9.30;100.00
12475;BME280;6302;42.624;23.334;2022-09-24T07:15:16;93756.75;;;9.47;100.00
12475;BME280;6302;42.624;23.334;2022-09-24T07:17:43;93754.47;;;9.49;100.00
12475;BME280;6302;42.624;23.334;2022-09-24T07:20:11;93762.44;;;9.56;100.00
12475;BME280;6302;42.624;23.334;2022-09-24T07:22:38;93746.59;;;9.70;100.00
12475;BME280;6302;42.624;23.334;2022-09-24T07:25:07;93747.00;;;9.76;100.00
12475;BME280;6302;42.624;23.334;2022-09-24T07:27:34;93751.94;;;9.77;100.00
12475;BME280;6302;42.624;23.334;2022-09-24T07:30:01;93750.41;;;9.76;100.00
12475;BME280;6302;42.624;23.334;2022-09-24T07:32:30;93751.94;;;9.85;100.00
12475;BME280;6302;42.624;23.334;2022-09-24T07:34:57;93747.78;;;9.98;100.00
12475;BME280;6302;42.624;23.334;2022-09-24T07:37:25;93754.97;;;10.01;100.00
12475;BME280;6302;42.624;23.334;2022-09-24T07:39:52;93754.25;;;10.11;100.00
12475;BME280;6302;42.624;23.334;2022-09-24T07:42:18;93753.91;;;10.16;100.00
12475;BME280;6302;42.624;23.334;2022-09-24T07:44:46;93747.09;;;10.32;100.00
12475;BME280;6302;42.624;23.334;2022-09-24T07:47:14;93751.63;;;10.50;100.00
12475;BME280;6302;42.624;23.334;2022-09-24T07:49:40;93744.84;;;10.49;100.00
12475;BME280;6302;42.624;23.334;2022-09-24T07:52:09;93747.88;;;10.54;100.00
12475;BME280;6302;42.624;23.334;2022-09-24T07:54:37;93740.66;;;10.55;100.00
12475;BME280;6302;42.624;23.334;2022-09-24T07:57:09;93753.13;;;10.65;100.00
12475;BME280;6302;42.624;23.334;2022-09-24T07:59:37;93745.56;;;10.60;100.00
12475;BME280;6302;42.624;23.334;2022-09-24T08:02:08;93747.09;;;10.71;100.00
12475;BME280;6302;42.624;23.334;2022-09-24T08:04:40;93748.56;;;10.79;100.00
12475;BME280;6302;42.624;23.334;2022-09-24T08:07:07;93741.75;;;10.92;100.00
12475;BME280;6302;42.624;23.334;2022-09-24T08:09:34;93747.38;;;11.08;100.00
12475;BME280;6302;42.624;23.334;2022-09-24T08:12:02;93743.97;;;11.15;100.00
12475;BME280;6302;42.624;23.334;2022-09-24T08:14:29;93748.50;;;11.18;100.00
12475;BME280;6302;42.624;23.334;2022-09-24T08:16:56;93749.59;;;11.24;100.00
12475;BME280;6302;42.624;23.334;2022-09-24T08:19:23;93759.75;;;11.43;100.00
12475;BME280;6302;42.624;23.334;2022-09-24T08:21:49;93753.66;;;11.53;100.00
12475;BME280;6302;42.624;23.334;2022-09-24T08:24:16;93755.16;;;11.65;99.95
12475;BME280;6302;42.624;23.334;2022-09-24T08:26:43;93751.72;;;11.68;98.34
12475;BME280;6302;42.624;23.334;2022-09-24T08:29:11;93763.47;;;11.78;98.65
12475;BME280;6302;42.624;23.334;2022-09-24T08:31:38;93755.78;;;11.90;95.73
12475;BME280;6302;42.624;23.334;2022-09-24T08:34:06;93756.16;;;11.92;97.88
12475;BME280;6302;42.624;23.334;2022-09-24T08:36:33;93749.59;;;12.07;98.00
12475;BME280;6302;42.624;23.334;2022-09-24T08:38:59;93749.53;;;12.18;94.84
12475;BME280;6302;42.624;23.334;2022-09-24T08:41:39;93745.56;;;12.44;91.70
12475;BME280;6302;42.624;23.334;2022-09-24T08:44:15;93749.34;;;12.43;86.50
12475;BME280;6302;42.624;23.334;2022-09-24T08:47:11;93753.47;;;12.51;85.47
12475;BME280;6302;42.624;23.334;2022-09-24T08:49:51;93750.00;;;12.57;85.40
12475;BME280;6302;42.624;23.334;2022-09-24T08:52:30;93747.25;;;12.71;86.98
12475;BME280;6302;42.624;23.334;2022-09-24T08:55:01;93749.69;;;12.92;85.58
12475;BME280;6302;42.624;23.334;2022-09-24T08:57:35;93736.63;;;13.09;80.84
12475;BME280;6302;42.624;23.334;2022-09-24T09:00:06;93729.97;;;13.27;81.42
12475;BME280;6302;42.624;23.334;2022-09-24T09:02:41;93728.00;;;13.31;80.97
12475;BME280;6302;42.624;23.334;2022-09-24T09:05:16;93730.16;;;13.43;78.63
12475;BME280;6302;42.624;23.334;2022-09-24T09:07:57;93722.41;;;13.56;78.93
12475;BME280;6302;42.624;23.334;2022-09-24T09:10:29;93726.06;;;13.65;75.62
12475;BME280;6302;42.624;23.334;2022-09-24T09:13:01;93723.03;;;13.67;73.57
12475;BME280;6302;42.624;23.334;2022-09-24T09:15:34;93730.97;;;13.70;74.10
12475;BME280;6302;42.624;23.334;2022-09-24T09:18:04;93735.16;;;13.72;73.76
12475;BME280;6302;42.624;23.334;2022-09-24T09:20:39;93726.38;;;13.71;71.90
12475;BME280;6302;42.624;23.334;2022-09-24T09:23:12;93721.91;;;13.95;69.20
12475;BME280;6302;42.624;23.334;2022-09-24T09:25:45;93722.81;;;13.85;70.68
12475;BME280;6302;42.624;23.334;2022-09-24T09:28:17;93721.06;;;13.98;71.85
12475;BME280;6302;42.624;23.334;2022-09-24T09:30:54;93716.72;;;14.11;66.79
12475;BME280;6302;42.624;23.334;2022-09-24T09:33:38;93712.78;;;14.19;67.78
12475;BME280;6302;42.624;23.334;2022-09-24T09:36:21;93711.06;;;14.32;63.63
12475;BME280;6302;42.624;23.334;2022-09-24T09:38:57;93707.00;;;14.51;60.32
12475;BME280;6302;42.624;23.334;2022-09-24T09:41:30;93711.78;;;14.59;61.27
12475;BME280;6302;42.624;23.334;2022-09-24T09:44:10;93705.28;;;14.83;59.71
12475;BME280;6302;42.624;23.334;2022-09-24T09:46:42;93705.34;;;14.80;62.74
12475;BME280;6302;42.624;23.334;2022-09-24T09:49:13;93704.47;;;14.86;61.92
12475;BME280;6302;42.624;23.334;2022-09-24T09:51:40;93695.75;;;15.06;58.53
12475;BME280;6302;42.624;23.334;2022-09-24T09:54:08;93691.75;;;15.14;59.19
12475;BME280;6302;42.624;23.334;2022-09-24T09:56:40;93661.09;;;15.02;57.26
12475;BME280;6302;42.624;23.334;2022-09-24T09:59:16;93686.78;;;15.16;56.07
12475;BME280;6302;42.624;23.334;2022-09-24T10:01:46;93679.25;;;15.30;56.64
12475;BME280;6302;42.624;23.334;2022-09-24T10:04:35;93676.09;;;15.55;56.45
12475;BME280;6302;42.624;23.334;2022-09-24T10:07:05;93675.31;;;15.74;57.36
12475;BME280;6302;42.624;23.334;2022-09-24T10:09:33;93673.50;;;15.87;51.34
12475;BME280;6302;42.624;23.334;2022-09-24T10:12:14;93668.94;;;16.04;52.39
12475;BME280;6302;42.624;23.334;2022-09-24T10:14:42;93672.03;;;16.18;51.03
12475;BME280;6302;42.624;23.334;2022-09-24T10:17:12;93665.84;;;16.21;48.91
12475;BME280;6302;42.624;23.334;2022-09-24T10:19:43;93660.81;;;16.40;49.72
12475;BME280;6302;42.624;23.334;2022-09-24T10:22:17;93652.06;;;16.55;50.43
12475;BME280;6302;42.624;23.334;2022-09-24T10:24:45;93651.28;;;16.71;50.21
12475;BME280;6302;42.624;23.334;2022-09-24T10:27:17;93651.91;;;16.91;48.99
12475;BME280;6302;42.624;23.334;2022-09-24T10:29:51;93645.03;;;16.90;45.48
12475;BME280;6302;42.624;23.334;2022-09-24T10:32:38;93656.59;;;16.87;45.54
12475;BME280;6302;42.624;23.334;2022-09-24T10:35:19;93651.81;;;16.95;45.70
12475;BME280;6302;42.624;23.334;2022-09-24T10:37:49;93646.31;;;17.14;46.18
12475;BME280;6302;42.624;23.334;2022-09-24T10:40:19;93645.81;;;17.32;45.30
12475;BME280;6302;42.624;23.334;2022-09-24T10:42:54;93644.53;;;17.36;44.43
12475;BME280;6302;42.624;23.334;2022-09-24T10:48:14;93649.44;;;17.67;42.76
12475;BME280;6302;42.624;23.334;2022-09-24T10:50:48;93643.09;;;17.61;43.22
12475;BME280;6302;42.624;23.334;2022-09-24T10:53:28;93634.00;;;17.71;44.57
12475;BME280;6302;42.624;23.334;2022-09-24T10:56:03;93637.88;;;17.82;42.27
12475;BME280;6302;42.624;23.334;2022-09-24T10:58:49;93635.72;;;17.77;42.10
12475;BME280;6302;42.624;23.334;2022-09-24T11:01:27;93639.28;;;17.87;43.75
12475;BME280;6302;42.624;23.334;2022-09-24T11:04:23;93638.41;;;17.90;44.17
12475;BME280;6302;42.624;23.334;2022-09-24T11:07:25;93638.81;;;18.01;43.78
12475;BME280;6302;42.624;23.334;2022-09-24T11:09:57;93635.94;;;17.95;43.61
12475;BME280;6302;42.624;23.334;2022-09-24T11:12:32;93638.59;;;18.08;42.45
12475;BME280;6302;42.624;23.334;2022-09-24T11:15:12;93636.91;;;18.01;41.37
12475;BME280;6302;42.624;23.334;2022-09-24T11:17:51;93629.63;;;18.02;43.99
12475;BME280;6302;42.624;23.334;2022-09-24T11:20:29;93626.69;;;18.22;40.15
12475;BME280;6302;42.624;23.334;2022-09-24T11:26:08;93615.22;;;18.21;41.76
12475;BME280;6302;42.624;23.334;2022-09-24T11:29:18;93612.13;;;18.44;42.63
12475;BME280;6302;42.624;23.334;2022-09-24T11:31:55;93606.97;;;18.62;39.44
12475;BME280;6302;42.624;23.334;2022-09-24T11:34:43;93601.13;;;18.76;39.02
12475;BME280;6302;42.624;23.334;2022-09-24T11:37:25;93595.88;;;18.95;38.70
12475;BME280;6302;42.624;23.334;2022-09-24T11:40:15;93594.66;;;19.08;39.88
12475;BME280;6302;42.624;23.334;2022-09-24T11:42:51;93598.88;;;19.18;39.89
12475;BME280;6302;42.624;23.334;2022-09-24T11:45:36;93598.19;;;19.27;40.26
12475;BME280;6302;42.624;23.334;2022-09-24T11:48:27;93591.47;;;19.53;40.75
12475;BME280;6302;42.624;23.334;2022-09-24T11:51:07;93594.56;;;19.73;40.25
12475;BME280;6302;42.624;23.334;2022-09-24T11:53:43;93588.59;;;19.69;39.59
12475;BME280;6302;42.624;23.334;2022-09-24T11:56:14;93597.31;;;19.82;38.64
12475;BME280;6302;42.624;23.334;2022-09-24T11:58:47;93593.19;;;19.99;39.13
12475;BME280;6302;42.624;23.334;2022-09-24T12:01:18;93585.84;;;20.00;37.35
12475;BME280;6302;42.624;23.334;2022-09-24T12:03:51;93592.63;;;20.13;38.48
12475;BME280;6302;42.624;23.334;2022-09-24T12:06:25;93583.03;;;20.12;36.67
12475;BME280;6302;42.624;23.334;2022-09-24T12:08:59;93580.38;;;20.22;37.19
12475;BME280;6302;42.624;23.334;2022-09-24T12:11:32;93574.28;;;20.30;36.42
12475;BME280;6302;42.624;23.334;2022-09-24T12:14:04;93577.44;;;20.38;36.29
12475;BME280;6302;42.624;23.334;2022-09-24T12:16:38;93576.25;;;20.48;35.89
12475;BME280;6302;42.624;23.334;2022-09-24T12:19:11;93588.22;;;20.65;35.77
12475;BME280;6302;42.624;23.334;2022-09-24T12:21:43;93579.56;;;20.70;34.88
12475;BME280;6302;42.624;23.334;2022-09-24T12:24:19;93580.59;;;20.72;34.37
12475;BME280;6302;42.624;23.334;2022-09-24T12:26:48;93577.31;;;20.59;32.52
12475;BME280;6302;42.624;23.334;2022-09-24T12:29:34;93578.69;;;20.64;31.98
12475;BME280;6302;42.624;23.334;2022-09-24T12:32:25;93576.25;;;20.39;33.25
12475;BME280;6302;42.624;23.334;2022-09-24T12:35:24;93575.00;;;20.22;32.15
12475;BME280;6302;42.624;23.334;2022-09-24T12:37:57;93590.50;;;19.99;33.07
12475;BME280;6302;42.624;23.334;2022-09-24T12:40:43;93576.16;;;20.11;33.45
12475;BME280;6302;42.624;23.334;2022-09-24T12:43:20;93575.63;;;20.26;33.67
12475;BME280;6302;42.624;23.334;2022-09-24T12:45:54;93574.75;;;20.29;32.33
12475;BME280;6302;42.624;23.334;2022-09-24T12:48:23;93579.97;;;20.32;32.79
12475;BME280;6302;42.624;23.334;2022-09-24T12:50:56;93574.16;;;20.34;32.94
12475;BME280;6302;42.624;23.334;2022-09-24T12:53:29;93569.38;;;20.47;33.34
12475;BME280;6302;42.624;23.334;2022-09-24T12:56:01;93560.41;;;20.59;34.18
12475;BME280;6302;42.624;23.334;2022-09-24T12:58:34;93562.50;;;20.64;33.20
12475;BME280;6302;42.624;23.334;2022-09-24T13:01:10;93560.72;;;20.70;33.30
12475;BME280;6302;42.624;23.334;2022-09-24T13:03:39;93554.72;;;20.66;32.74
12475;BME280;6302;42.624;23.334;2022-09-24T13:06:22;93554.44;;;20.73;34.83
12475;BME280;6302;42.624;23.334;2022-09-24T13:08:55;93555.16;;;20.83;32.65
12475;BME280;6302;42.624;23.334;2022-09-24T13:11:27;93545.13;;;20.92;33.48
12475;BME280;6302;42.624;23.334;2022-09-24T13:14:00;93553.22;;;20.92;34.80
12475;BME280;6302;42.624;23.334;2022-09-24T13:16:29;93548.72;;;20.98;34.53
12475;BME280;6302;42.624;23.334;2022-09-24T13:18:58;93545.88;;;21.11;33.95
12475;BME280;6302;42.624;23.334;2022-09-24T13:21:27;93550.22;;;21.17;33.62
12475;BME280;6302;42.624;23.334;2022-09-24T13:23:55;93547.94;;;21.25;33.37
12475;BME280;6302;42.624;23.334;2022-09-24T13:26:30;93549.28;;;21.29;32.04
12475;BME280;6302;42.624;23.334;2022-09-24T13:28:59;93545.06;;;21.28;32.01